Time;durP1;ratioP1;P1;durP2;ratioP2;P2;SDS_P1;SDS_P2;PMS_P1;PMS_P2;Temp;Humidity;BMP_temperature;BMP_pressure;BME280_temperature;BME280_humidity;BME280_pressure;Samples;Min_cycle;Max_cycle;Signal;HPM_P1;HPM_P2
2023/03/06 00:00:47;;;;;;;34.80;15.43;;;7.60;91.60;;;;;;5060363;28;20557;-59
2023/03/06 00:03:51;;;;;;;25.73;13.27;;;5.70;90.70;;;;;;5071179;28;20474;-58
2023/03/06 00:06:18;;;;;;;25.90;14.00;;;5.70;90.90;;;;;;5042247;28;20554;-59
2023/03/06 00:08:46;;;;;;;28.50;14.10;;;5.70;90.90;;;;;;5079941;27;20527;-59
2023/03/06 00:11:14;;;;;;;30.60;13.73;;;5.70;90.70;;;;;;5068962;28;20817;-59
2023/03/06 00:13:41;;;;;;;38.57;17.67;;;5.80;90.70;;;;;;5062476;28;20524;-59
2023/03/06 00:16:08;;;;;;;36.13;16.27;;;5.70;90.60;;;;;;5079859;28;20551;-59
2023/03/06 00:18:34;;;;;;;34.27;14.67;;;5.80;90.70;;;;;;5064523;28;20477;-58
2023/03/06 00:21:01;;;;;;;53.30;22.57;;;5.80;90.90;;;;;;5072336;28;20486;-59
2023/03/06 00:23:28;;;;;;;32.17;16.00;;;5.80;90.80;;;;;;5072957;28;20475;-59
2023/03/06 00:25:56;;;;;;;46.40;19.53;;;7.20;91.50;;;;;;5069375;28;20826;-60
2023/03/06 00:28:23;;;;;;;36.60;17.67;;;5.50;91.00;;;;;;5065244;28;20475;-59
2023/03/06 00:30:49;;;;;;;37.00;18.47;;;5.40;91.20;;;;;;5065146;28;20482;-59
2023/03/06 00:33:16;;;;;;;35.10;14.70;;;5.30;91.40;;;;;;5064820;28;20489;-59
2023/03/06 00:35:43;;;;;;;31.33;15.70;;;5.40;91.40;;;;;;5084671;28;20461;-59
2023/03/06 00:38:11;;;;;;;36.60;16.20;;;5.40;91.40;;;;;;5070698;28;20482;-58
2023/03/06 00:40:38;;;;;;;44.13;17.67;;;5.40;91.40;;;;;;5071371;28;20943;-59
2023/03/06 00:43:06;;;;;;;49.83;20.60;;;5.40;91.20;;;;;;5058004;28;20485;-59
2023/03/06 00:45:33;;;;;;;33.97;15.73;;;5.50;91.20;;;;;;5078704;27;21086;-60
2023/03/06 00:48:00;;;;;;;45.37;19.30;;;5.50;91.20;;;;;;5049368;28;20477;-59
2023/03/06 00:50:26;;;;;;;35.63;16.43;;;5.50;91.20;;;;;;5082760;28;20474;-59
2023/03/06 00:52:53;;;;;;;50.30;20.57;;;5.40;91.30;;;;;;5068460;28;20482;-59
2023/03/06 00:55:20;;;;;;;34.93;13.37;;;5.50;91.40;;;;;;5070633;28;20486;-60
2023/03/06 00:57:46;;;;;;;33.20;16.20;;;5.50;91.50;;;;;;5073813;28;20879;-60
2023/03/06 01:00:15;;;;;;;33.53;16.00;;;5.50;91.40;;;;;;5062161;28;20853;-59
2023/03/06 01:02:42;;;;;;;38.23;17.50;;;5.50;91.30;;;;;;5069878;28;21134;-59
2023/03/06 01:05:09;;;;;;;41.17;18.53;;;5.60;91.20;;;;;;5070009;28;20470;-59
2023/03/06 01:07:36;;;;;;;34.77;16.47;;;5.60;91.10;;;;;;5066699;28;21754;-59
2023/03/06 01:10:04;;;;;;;43.93;19.70;;;5.50;91.20;;;;;;5071465;28;20500;-59
2023/03/06 01:12:30;;;;;;;43.23;19.00;;;5.40;91.30;;;;;;5073490;28;21040;-59
2023/03/06 01:14:57;;;;;;;47.53;21.70;;;5.40;91.50;;;;;;5068965;28;20510;-59
2023/03/06 01:17:25;;;;;;;35.93;16.33;;;5.50;91.40;;;;;;5063857;28;21012;-59
2023/03/06 01:19:52;;;;;;;41.50;19.00;;;5.50;91.30;;;;;;5065939;28;20909;-59
2023/03/06 01:22:19;;;;;;;34.67;17.27;;;5.50;91.30;;;;;;5071773;28;20591;-60
2023/03/06 01:24:45;;;;;;;40.80;16.17;;;5.50;91.40;;;;;;5087954;28;20558;-59
2023/03/06 01:27:12;;;;;;;35.23;16.63;;;5.30;91.50;;;;;;5065141;28;20492;-59
2023/03/06 01:29:39;;;;;;;46.63;18.93;;;5.20;91.60;;;;;;5087518;28;20481;-59
2023/03/06 01:32:06;;;;;;;46.60;19.30;;;5.10;91.90;;;;;;5074238;28;20488;-59
2023/03/06 01:34:34;;;;;;;35.60;17.37;;;5.10;92.00;;;;;;5079267;28;20482;-59
2023/03/06 01:37:00;;;;;;;48.43;21.60;;;5.10;91.90;;;;;;5065089;28;20661;-59
2023/03/06 01:39:27;;;;;;;32.80;14.87;;;5.20;92.00;;;;;;5081973;28;20485;-59
2023/03/06 01:41:54;;;;;;;43.33;20.13;;;5.30;91.80;;;;;;5084738;28;20471;-59
2023/03/06 01:44:21;;;;;;;34.23;17.77;;;5.30;91.80;;;;;;5078489;28;21196;-59
2023/03/06 01:46:48;;;;;;;36.10;16.43;;;5.30;91.90;;;;;;5080831;28;20493;-59
2023/03/06 01:49:19;;;;;;;27.10;15.40;;;5.20;91.80;;;;;;5055436;28;20545;-60
2023/03/06 01:51:51;;;;;;;35.33;17.70;;;5.30;91.90;;;;;;5063437;28;20482;-59
2023/03/06 01:54:23;;;;;;;36.57;16.80;;;5.30;91.90;;;;;;5073630;28;20867;-59
2023/03/06 01:56:52;;;;;;;38.83;17.67;;;5.30;91.70;;;;;;5074318;28;20731;-59
2023/03/06 01:59:20;;;;;;;37.43;16.70;;;5.30;91.80;;;;;;5056950;28;20487;-59
2023/03/06 02:01:48;;;;;;;33.10;16.57;;;5.30;91.80;;;;;;5069782;28;20544;-59
2023/03/06 02:04:15;;;;;;;40.83;17.43;;;5.30;91.80;;;;;;5063074;28;20479;-60
2023/03/06 02:06:43;;;;;;;38.30;16.50;;;5.20;91.90;;;;;;5071014;28;21013;-59
2023/03/06 02:09:12;;;;;;;34.50;15.30;;;5.20;91.90;;;;;;5075170;28;20996;-59
2023/03/06 02:11:42;;;;;;;32.70;16.93;;;5.20;91.80;;;;;;5072482;28;20474;-59
2023/03/06 02:14:10;;;;;;;29.03;16.23;;;5.10;92.00;;;;;;5072126;28;21088;-59
2023/03/06 02:16:37;;;;;;;34.80;16.57;;;5.20;92.00;;;;;;5071789;28;20872;-59
2023/03/06 02:19:07;;;;;;;49.17;19.17;;;5.20;91.90;;;;;;5072461;28;20566;-59
2023/03/06 02:21:36;;;;;;;41.40;17.77;;;5.30;91.90;;;;;;5065430;28;20462;-59
2023/03/06 02:24:19;;;;;;;44.43;21.47;;;;;;;;;;5073469;28;20822;-59
2023/03/06 02:26:48;;;;;;;48.80;18.60;;;5.30;91.90;;;;;;5073588;28;20596;-59
2023/03/06 02:29:18;;;;;;;35.67;15.50;;;5.30;91.80;;;;;;5075294;28;20478;-58
2023/03/06 02:31:45;;;;;;;29.60;14.97;;;5.40;91.70;;;;;;5065325;28;20466;-57
2023/03/06 02:34:44;;;;;;;35.53;16.33;;;5.40;91.80;;;;;;5078770;28;20486;-59
2023/03/06 02:37:11;;;;;;;36.47;16.10;;;5.20;91.80;;;;;;5091711;28;20482;-58
2023/03/06 02:39:42;;;;;;;34.43;15.60;;;5.20;91.90;;;;;;5078081;28;21077;-59
2023/03/06 02:42:10;;;;;;;38.30;18.17;;;;;;;;;;5061811;28;21057;-59
2023/03/06 02:44:37;;;;;;;36.77;17.20;;;5.20;91.90;;;;;;5078544;28;21204;-59
2023/03/06 02:47:06;;;;;;;43.07;19.13;;;5.20;91.90;;;;;;5089425;28;20485;-59
2023/03/06 02:49:33;;;;;;;30.40;16.50;;;5.30;91.80;;;;;;5079711;28;20469;-59
2023/03/06 02:52:00;;;;;;;45.43;21.33;;;5.30;91.80;;;;;;5068993;28;20708;-59
2023/03/06 02:54:27;;;;;;;38.67;17.33;;;5.40;91.80;;;;;;5051227;28;20478;-59
2023/03/06 02:56:53;;;;;;;43.17;19.67;;;5.40;91.90;;;;;;5077578;28;20482;-59
2023/03/06 02:59:21;;;;;;;29.73;12.40;;;5.50;91.90;;;;;;5064499;28;20481;-58
2023/03/06 03:01:48;;;;;;;46.37;19.53;;;5.40;91.90;;;;;;5080082;28;20859;-58
2023/03/06 03:04:15;;;;;;;30.53;15.23;;;5.40;91.80;;;;;;5074918;28;20523;-58
2023/03/06 03:06:42;;;;;;;40.40;15.73;;;5.40;91.70;;;;;;5073624;28;20474;-58
2023/03/06 03:09:08;;;;;;;36.97;17.00;;;5.30;91.60;;;;;;5078595;28;20478;-59
2023/03/06 03:11:35;;;;;;;39.17;17.93;;;5.10;91.90;;;;;;5052876;28;20474;-59
2023/03/06 03:14:01;;;;;;;40.93;19.63;;;5.10;91.90;;;;;;5076249;28;20539;-59
2023/03/06 03:16:30;;;;;;;37.63;16.50;;;5.00;91.90;;;;;;5064754;28;20539;-59
2023/03/06 03:18:56;;;;;;;42.57;19.07;;;4.90;92.10;;;;;;5068892;28;20531;-59
2023/03/06 03:21:24;;;;;;;36.07;17.63;;;4.90;92.10;;;;;;5069819;28;20531;-59
2023/03/06 03:23:51;;;;;;;51.00;20.67;;;4.80;92.10;;;;;;5077773;28;20483;-59
2023/03/06 03:26:19;;;;;;;33.20;15.83;;;4.80;92.20;;;;;;5079596;28;20892;-59
2023/03/06 03:28:46;;;;;;;33.60;17.77;;;4.80;92.20;;;;;;5090486;28;20465;-59
2023/03/06 03:31:13;;;;;;;26.87;12.90;;;4.80;92.30;;;;;;5062155;28;20526;-59
2023/03/06 03:33:41;;;;;;;34.30;17.27;;;4.70;92.30;;;;;;5076929;28;20532;-59
2023/03/06 03:36:08;;;;;;;39.40;15.27;;;4.70;92.30;;;;;;5072267;28;20918;-59
2023/03/06 03:38:35;;;;;;;34.03;15.93;;;4.70;92.40;;;;;;5073732;28;20486;-59
2023/03/06 03:41:03;;;;;;;44.60;21.23;;;4.60;92.50;;;;;;5059929;28;20648;-59
2023/03/06 03:43:29;;;;;;;36.77;16.83;;;4.70;92.60;;;;;;5091251;28;20870;-59
2023/03/06 03:45:56;;;;;;;43.20;19.67;;;4.60;92.50;;;;;;5089553;28;20653;-59
2023/03/06 03:48:23;;;;;;;36.47;15.97;;;4.70;92.40;;;;;;5075182;28;20544;-59
2023/03/06 03:50:51;;;;;;;38.47;16.50;;;4.70;92.60;;;;;;5072105;28;20723;-59
2023/03/06 03:53:18;;;;;;;31.17;15.67;;;4.70;92.40;;;;;;5066068;28;20954;-59
2023/03/06 03:55:46;;;;;;;36.10;15.30;;;4.70;92.40;;;;;;5087403;28;20474;-59
2023/03/06 03:58:13;;;;;;;29.33;14.10;;;4.80;92.50;;;;;;5076345;28;20472;-59
2023/03/06 04:00:39;;;;;;;36.60;16.77;;;4.80;92.40;;;;;;5070558;28;20490;-59
2023/03/06 04:03:06;;;;;;;37.93;16.90;;;4.90;92.20;;;;;;5057823;28;20478;-59
2023/03/06 04:05:33;;;;;;;35.80;17.00;;;4.90;92.20;;;;;;5091224;27;20489;-59
2023/03/06 04:08:02;;;;;;;41.07;19.70;;;4.90;92.20;;;;;;5071359;28;20478;-59
2023/03/06 04:10:28;;;;;;;46.10;17.83;;;4.80;92.30;;;;;;5084437;28;20501;-60
2023/03/06 04:12:55;;;;;;;40.27;18.80;;;4.80;92.40;;;;;;5069660;28;20787;-59
2023/03/06 04:15:22;;;;;;;32.03;17.07;;;4.80;92.50;;;;;;5077508;28;20831;-59
2023/03/06 04:17:48;;;;;;;35.50;15.50;;;4.80;92.70;;;;;;5076844;28;20548;-59
2023/03/06 04:20:15;;;;;;;32.60;17.03;;;4.70;92.70;;;;;;5080534;28;20481;-59
2023/03/06 04:22:42;;;;;;;37.47;15.97;;;4.70;93.00;;;;;;5043469;28;20908;-59
2023/03/06 04:25:10;;;;;;;26.77;14.20;;;4.70;93.10;;;;;;5081951;28;20482;-59
2023/03/06 04:27:37;;;;;;;31.80;15.57;;;4.60;93.10;;;;;;5059644;28;20808;-59
2023/03/06 04:30:05;;;;;;;44.17;19.50;;;4.70;93.20;;;;;;5072542;28;20970;-59
2023/03/06 04:32:31;;;;;;;53.80;17.97;;;4.60;93.60;;;;;;5078223;28;21116;-59
2023/03/06 04:34:58;;;;;;;38.67;17.50;;;4.50;93.70;;;;;;5081017;28;20486;-59
2023/03/06 04:37:26;;;;;;;34.53;16.97;;;4.50;93.70;;;;;;5079068;28;20523;-60
2023/03/06 04:39:53;;;;;;;49.87;15.67;;;4.40;93.90;;;;;;5054960;28;20474;-59
2023/03/06 04:42:21;;;;;;;33.13;16.17;;;4.40;93.70;;;;;;5081312;27;20909;-59
2023/03/06 04:44:47;;;;;;;30.70;15.33;;;4.40;93.90;;;;;;5077359;28;20895;-58
2023/03/06 04:47:14;;;;;;;39.50;15.57;;;4.30;94.10;;;;;;5092917;28;20573;-59
2023/03/06 04:49:41;;;;;;;37.97;17.50;;;4.30;94.30;;;;;;5090682;28;20470;-59
2023/03/06 04:52:07;;;;;;;39.27;18.40;;;4.30;94.20;;;;;;5060592;28;20495;-59
2023/03/06 04:54:34;;;;;;;32.10;15.63;;;4.20;94.00;;;;;;5081175;28;20489;-59
2023/03/06 04:57:01;;;;;;;40.73;20.10;;;4.10;94.10;;;;;;5082679;28;21065;-59
2023/03/06 04:59:29;;;;;;;40.57;18.10;;;4.10;94.20;;;;;;5079306;28;20842;-59
2023/03/06 05:01:56;;;;;;;53.30;17.60;;;4.10;94.30;;;;;;5079395;28;20506;-59
2023/03/06 05:04:23;;;;;;;34.10;15.03;;;4.20;94.10;;;;;;5059690;28;20470;-59
2023/03/06 05:06:50;;;;;;;39.23;18.63;;;4.10;94.00;;;;;;5080800;28;20732;-59
2023/03/06 05:09:16;;;;;;;39.90;15.30;;;4.20;94.20;;;;;;5079278;28;20466;-59
2023/03/06 05:11:43;;;;;;;34.63;16.00;;;4.30;94.10;;;;;;5057454;28;20618;-59
2023/03/06 05:14:10;;;;;;;29.80;14.77;;;4.30;94.00;;;;;;5070611;28;20516;-59
2023/03/06 05:16:38;;;;;;;25.63;14.03;;;4.40;93.80;;;;;;5077667;28;20798;-59
2023/03/06 05:19:04;;;;;;;39.53;20.20;;;4.50;93.70;;;;;;5053061;28;20640;-58
2023/03/06 05:21:31;;;;;;;27.00;13.97;;;4.50;93.60;;;;;;5093452;28;20972;-58
2023/03/06 05:23:58;;;;;;;46.60;20.40;;;4.40;93.70;;;;;;5067572;28;20579;-59
2023/03/06 05:26:24;;;;;;;40.27;16.53;;;4.40;93.90;;;;;;5080099;28;20534;-59
2023/03/06 05:28:52;;;;;;;42.00;18.70;;;4.40;93.90;;;;;;5062900;28;20592;-58
2023/03/06 05:31:18;;;;;;;26.03;13.63;;;4.50;93.70;;;;;;5070432;28;20490;-59
2023/03/06 05:33:46;;;;;;;30.27;15.20;;;4.50;93.80;;;;;;5079287;28;20990;-59
2023/03/06 05:36:13;;;;;;;25.53;13.20;;;4.50;93.70;;;;;;5079534;28;20656;-59
2023/03/06 05:38:40;;;;;;;30.20;13.97;;;4.50;93.70;;;;;;5071108;28;20490;-59
2023/03/06 05:41:06;;;;;;;36.67;15.53;;;4.50;93.80;;;;;;5070214;28;20515;-59
2023/03/06 05:43:33;;;;;;;31.10;15.67;;;4.60;93.80;;;;;;5093524;28;20878;-59
2023/03/06 05:46:02;;;;;;;42.37;19.30;;;4.60;93.50;;;;;;5079564;27;20601;-58
2023/03/06 05:48:28;;;;;;;31.80;16.30;;;4.70;93.60;;;;;;5070391;28;20589;-58
2023/03/06 05:50:57;;;;;;;47.90;19.60;;;4.70;93.60;;;;;;5067462;28;20545;-59
2023/03/06 05:53:25;;;;;;;30.03;15.13;;;4.70;93.30;;;;;;5062040;28;20570;-59
2023/03/06 05:56:00;;;;;;;41.30;18.40;;;4.60;93.30;;;;;;5087063;28;20469;-58
2023/03/06 05:58:27;;;;;;;32.60;15.53;;;4.60;93.40;;;;;;5066752;28;21214;-59
2023/03/06 06:00:53;;;;;;;46.00;19.83;;;4.60;93.60;;;;;;5077922;28;20822;-59
2023/03/06 06:03:21;;;;;;;42.13;14.87;;;4.50;93.60;;;;;;5077390;27;20542;-58
2023/03/06 06:05:47;;;;;;;37.23;16.40;;;4.50;93.70;;;;;;5066827;27;20470;-58
2023/03/06 06:08:15;;;;;;;26.90;14.40;;;4.40;93.80;;;;;;5081710;28;20485;-58
2023/03/06 06:10:42;;;;;;;34.30;17.07;;;4.20;94.00;;;;;;5077703;28;20532;-58
2023/03/06 06:13:09;;;;;;;31.23;15.70;;;4.10;94.10;;;;;;5062386;28;20580;-58
2023/03/06 06:15:38;;;;;;;28.60;15.40;;;4.00;94.20;;;;;;5065986;28;20529;-58
2023/03/06 06:18:04;;;;;;;47.67;20.00;;;3.90;94.30;;;;;;5053049;28;20990;-58
2023/03/06 06:20:31;;;;;;;34.90;15.97;;;3.80;94.50;;;;;;5087503;28;20541;-58
2023/03/06 06:22:58;;;;;;;57.70;22.30;;;3.70;94.70;;;;;;5070608;28;20931;-58
2023/03/06 06:25:26;;;;;;;38.90;17.20;;;3.80;94.70;;;;;;5057128;28;20877;-58
2023/03/06 06:27:54;;;;;;;45.50;19.47;;;3.80;94.80;;;;;;5071658;28;20486;-59
2023/03/06 06:30:22;;;;;;;38.90;16.87;;;3.80;94.80;;;;;;5059369;28;20482;-58
2023/03/06 06:32:48;;;;;;;43.97;17.77;;;3.80;94.50;;;;;;5061953;28;21031;-58
2023/03/06 06:35:15;;;;;;;36.80;16.80;;;3.90;94.40;;;;;;5069838;28;20477;-58
2023/03/06 06:37:42;;;;;;;32.10;14.73;;;4.10;94.30;;;;;;5073138;27;20734;-58
2023/03/06 06:40:10;;;;;;;31.63;14.70;;;4.20;94.10;;;;;;5063392;28;20494;-58
2023/03/06 06:42:38;;;;;;;44.03;15.60;;;4.30;94.00;;;;;;5049073;28;20922;-59
2023/03/06 06:45:06;;;;;;;42.90;17.40;;;4.40;94.00;;;;;;5073376;28;20481;-59
2023/03/06 06:47:32;;;;;;;38.50;13.30;;;2.60;93.10;;;;;;5087051;28;20821;-60
2023/03/06 06:49:59;;;;;;;48.07;18.53;;;4.50;93.80;;;;;;5063663;28;20540;-60
2023/03/06 06:52:26;;;;;;;36.50;15.90;;;4.40;93.80;;;;;;5070061;28;20470;-59
2023/03/06 06:54:53;;;;;;;51.13;20.47;;;4.50;93.80;;;;;;5068911;28;20497;-59
2023/03/06 06:57:20;;;;;;;26.73;13.70;;;4.50;93.80;;;;;;5067298;28;20483;-59
2023/03/06 06:59:48;;;;;;;28.80;12.80;;;4.50;93.70;;;;;;5067458;28;20632;-59
2023/03/06 07:02:16;;;;;;;27.23;13.53;;;4.50;93.70;;;;;;5064890;28;20482;-60
2023/03/06 07:04:43;;;;;;;33.90;15.77;;;4.50;93.80;;;;;;5073106;28;20528;-59
2023/03/06 07:07:10;;;;;;;30.40;14.50;;;4.50;93.80;;;;;;5070245;28;20481;-58
2023/03/06 07:09:38;;;;;;;41.33;16.57;;;4.40;93.80;;;;;;5072925;28;20867;-58
2023/03/06 07:12:06;;;;;;;45.20;16.93;;;4.40;93.90;;;;;;5072845;28;20513;-58
2023/03/06 07:14:32;;;;;;;33.50;15.30;;;4.40;94.00;;;;;;5069191;28;20478;-58
2023/03/06 07:17:00;;;;;;;53.37;21.27;;;4.40;94.00;;;;;;5070273;28;20509;-58
2023/03/06 07:19:27;;;;;;;32.13;15.13;;;4.40;94.20;;;;;;5070024;28;20478;-58
2023/03/06 07:21:54;;;;;;;47.57;20.40;;;4.30;94.20;;;;;;5073377;28;20538;-58
2023/03/06 07:24:20;;;;;;;32.93;16.37;;;4.40;94.30;;;;;;5062842;28;20707;-59
2023/03/06 07:26:47;;;;;;;36.27;16.87;;;4.40;94.40;;;;;;5063014;28;20486;-59
2023/03/06 07:29:14;;;;;;;32.30;15.20;;;4.40;94.40;;;;;;5046556;28;20482;-58
2023/03/06 07:31:41;;;;;;;29.97;14.57;;;4.30;94.40;;;;;;5063194;28;20490;-58
2023/03/06 07:34:12;;;;;;;47.33;17.57;;;4.20;94.50;;;;;;5051265;28;20510;-58
2023/03/06 07:36:39;;;;;;;27.77;13.80;;;4.30;94.80;;;;;;5060447;28;20546;-58
2023/03/06 07:39:06;;;;;;;40.87;18.57;;;4.40;94.50;;;;;;5077657;28;20527;-58
2023/03/06 07:41:32;;;;;;;30.73;16.10;;;4.40;94.40;;;;;;5065004;28;20562;-59
2023/03/06 07:43:59;;;;;;;93.17;40.73;;;4.30;94.50;;;;;;5073959;28;20547;-58
2023/03/06 07:46:26;;;;;;;43.40;18.60;;;4.20;94.50;;;;;;5075848;28;20706;-58
2023/03/06 07:48:52;;;;;;;32.50;16.77;;;4.30;94.60;;;;;;5071184;28;20867;-58
2023/03/06 07:51:22;;;;;;;30.00;15.77;;;4.30;94.50;;;;;;5068426;28;21018;-58
2023/03/06 07:53:49;;;;;;;36.20;18.00;;;4.30;94.50;;;;;;5054857;28;20485;-58
2023/03/06 07:56:16;;;;;;;31.87;16.33;;;4.30;94.60;;;;;;5074570;28;20833;-58
2023/03/06 07:58:45;;;;;;;34.27;17.27;;;4.30;94.70;;;;;;5067560;28;20498;-58
2023/03/06 08:01:14;;;;;;;43.13;20.33;;;4.40;94.50;;;;;;5067834;28;20986;-59
2023/03/06 08:03:41;;;;;;;45.63;19.13;;;4.30;94.90;;;;;;5065719;28;20914;-58
2023/03/06 08:06:10;;;;;;;38.00;16.90;;;4.50;95.00;;;;;;5067656;28;20486;-58
2023/03/06 08:08:39;;;;;;;34.93;17.60;;;4.60;94.80;;;;;;5068433;28;20562;-57
2023/03/06 08:11:06;;;;;;;45.03;19.20;;;4.60;94.80;;;;;;5088878;28;20841;-58
2023/03/06 08:13:33;;;;;;;34.53;17.80;;;4.70;94.50;;;;;;5068786;28;20866;-58
2023/03/06 08:16:00;;;;;;;42.83;21.13;;;4.70;94.70;;;;;;5065189;28;20481;-58
2023/03/06 08:18:27;;;;;;;32.50;13.97;;;4.80;94.60;;;;;;5082992;28;20953;-58
2023/03/06 08:21:02;;;;;;;40.03;20.07;;;4.70;94.80;;;;;;5055446;28;20471;-58
2023/03/06 08:23:29;;;;;;;46.77;18.50;;;4.80;94.50;;;;;;5068924;28;20477;-58
2023/03/06 08:25:59;;;;;;;47.53;21.73;;;4.80;94.60;;;;;;5079952;28;20496;-58
2023/03/06 08:28:25;;;;;;;47.00;20.43;;;4.80;94.60;;;;;;5068155;27;20531;-58
2023/03/06 08:30:52;;;;;;;37.10;19.50;;;4.80;94.80;;;;;;5057064;28;20486;-58
2023/03/06 08:33:19;;;;;;;38.63;18.20;;;4.90;94.80;;;;;;5075929;28;20554;-58
2023/03/06 08:35:46;;;;;;;30.10;14.60;;;4.90;94.60;;;;;;5061023;28;20490;-58
2023/03/06 08:38:12;;;;;;;27.77;13.77;;;6.30;95.10;;;;;;5060306;28;21749;-58
2023/03/06 08:40:39;;;;;;;37.90;17.67;;;5.00;94.40;;;;;;5071687;28;20741;-58
2023/03/06 08:43:08;;;;;;;46.40;21.40;;;5.00;94.40;;;;;;5056024;28;20477;-58
2023/03/06 08:45:35;;;;;;;45.37;18.17;;;5.10;94.50;;;;;;5076478;28;20483;-58
2023/03/06 08:48:02;;;;;;;43.17;21.00;;;5.10;94.60;;;;;;5069582;28;20552;-58
2023/03/06 08:50:29;;;;;;;30.43;14.17;;;5.20;94.30;;;;;;5059680;28;20927;-58
2023/03/06 08:52:55;;;;;;;58.80;22.83;;;5.10;94.20;;;;;;5055704;28;20477;-58
2023/03/06 08:55:22;;;;;;;28.43;14.00;;;5.20;94.40;;;;;;5073089;28;20531;-58
2023/03/06 08:57:49;;;;;;;32.83;16.03;;;5.20;94.20;;;;;;5060397;28;22447;-58
2023/03/06 09:00:19;;;;;;;31.40;14.10;;;5.20;94.20;;;;;;5060704;28;20474;-58
2023/03/06 09:02:45;;;;;;;30.00;14.70;;;5.00;94.90;;;;;;5059127;28;20978;-58
2023/03/06 09:05:12;;;;;;;32.00;14.53;;;5.10;94.90;;;;;;5064088;28;20560;-58
2023/03/06 09:07:39;;;;;;;36.13;18.77;;;5.00;94.90;;;;;;5064782;28;20479;-58
2023/03/06 09:10:07;;;;;;;40.63;18.70;;;5.00;95.00;;;;;;5066715;28;20470;-58
2023/03/06 09:12:33;;;;;;;37.77;19.67;;;5.10;95.00;;;;;;5066172;28;20498;-58
2023/03/06 09:15:03;;;;;;;51.80;23.60;;;5.20;95.10;;;;;;5067798;28;20486;-58
2023/03/06 09:17:31;;;;;;;33.67;16.27;;;5.60;95.10;;;;;;5070931;28;20469;-58
2023/03/06 09:19:58;;;;;;;59.50;24.30;;;5.20;94.90;;;;;;5057987;28;20467;-58
2023/03/06 09:22:25;;;;;;;44.23;17.27;;;5.10;95.20;;;;;;5077598;28;20478;-58
2023/03/06 09:24:52;;;;;;;37.70;17.80;;;5.10;95.00;;;;;;5065353;28;21367;-58
2023/03/06 09:27:19;;;;;;;38.20;19.10;;;5.00;95.00;;;;;;5068870;28;20732;-58
2023/03/06 09:29:46;;;;;;;39.40;19.03;;;5.00;95.40;;;;;;5071667;28;20552;-58
2023/03/06 09:32:12;;;;;;;30.97;14.57;;;4.90;95.60;;;;;;5055890;28;20528;-58
2023/03/06 09:34:40;;;;;;;50.37;24.53;;;5.00;95.70;;;;;;5050364;28;20513;-58
2023/03/06 09:37:07;;;;;;;47.73;19.33;;;5.10;95.60;;;;;;5064007;28;21051;-58
2023/03/06 09:39:34;;;;;;;36.83;16.47;;;5.20;95.90;;;;;;5053718;28;20475;-58
2023/03/06 09:42:01;;;;;;;43.73;17.93;;;5.20;95.30;;;;;;5063782;28;21060;-59
2023/03/06 09:44:31;;;;;;;40.57;19.00;;;5.20;95.40;;;;;;5066300;28;20549;-58
2023/03/06 09:47:15;;;;;;;44.73;19.30;;;5.40;95.60;;;;;;5064884;28;20470;-58
2023/03/06 09:50:09;;;;;;;41.57;20.20;;;7.60;96.70;;;;;;5053644;27;20546;-58
2023/03/06 09:52:42;;;;;;;38.37;19.27;;;5.30;95.80;;;;;;5056633;28;20997;-58
2023/03/06 09:55:12;;;;;;;25.03;13.07;;;5.40;95.50;;;;;;5058953;28;20502;-58
2023/03/06 09:57:42;;;;;;;33.20;15.57;;;5.40;95.10;;;;;;5067862;28;20974;-59
2023/03/06 10:00:15;;;;;;;41.80;16.60;;;3.80;94.20;;;;;;5061044;28;20478;-58
2023/03/06 10:02:44;;;;;;;38.33;18.37;;;5.50;95.10;;;;;;5067690;28;20522;-58
2023/03/06 10:05:17;;;;;;;29.50;14.37;;;5.50;95.70;;;;;;5081908;28;20527;-58
2023/03/06 10:07:48;;;;;;;39.90;18.10;;;5.50;94.70;;;;;;5058546;28;20479;-59
2023/03/06 10:10:21;;;;;;;31.77;13.97;;;5.40;94.60;;;;;;5068345;28;21017;-59
2023/03/06 10:12:57;;;;;;;27.90;12.50;;;5.20;94.60;;;;;;5054851;27;21009;-58
2023/03/06 10:15:26;;;;;;;41.50;18.53;;;5.20;94.50;;;;;;5066154;28;21244;-59
2023/03/06 10:17:53;;;;;;;42.17;17.57;;;5.10;94.90;;;;;;5056920;28;20486;-58
2023/03/06 10:20:23;;;;;;;25.30;13.30;;;5.20;95.20;;;;;;5062032;28;20490;-59
2023/03/06 10:23:13;;;;;;;41.03;17.17;;;5.20;95.40;;;;;;5059623;28;20480;-58
2023/03/06 10:25:50;;;;;;;40.37;18.17;;;5.20;94.90;;;;;;5061918;28;20478;-59
2023/03/06 10:28:20;;;;;;;41.00;18.37;;;5.20;94.90;;;;;;5061308;28;21068;-59
2023/03/06 10:30:54;;;;;;;41.00;16.87;;;5.00;95.30;;;;;;5064357;28;20956;-58
2023/03/06 10:33:35;;;;;;;29.60;11.97;;;5.20;95.80;;;;;;5068095;28;20792;-58
2023/03/06 10:36:03;;;;;;;55.47;20.30;;;5.20;96.40;;;;;;5070453;28;20528;-58
2023/03/06 10:38:36;;;;;;;37.70;16.77;;;5.20;96.70;;;;;;5069415;28;20935;-59
2023/03/06 10:41:08;;;;;;;50.00;20.23;;;5.10;95.60;;;;;;5062300;28;20526;-58
2023/03/06 10:43:42;;;;;;;38.43;17.33;;;5.10;95.60;;;;;;5064700;28;20540;-58
2023/03/06 10:46:11;;;;;;;33.60;15.10;;;5.00;95.90;;;;;;5054754;28;20485;-59
2023/03/06 10:48:40;;;;;;;42.10;16.70;;;4.90;95.80;;;;;;5066294;28;20504;-58
2023/03/06 10:51:17;;;;;;;53.33;20.70;;;5.00;96.00;;;;;;5061483;28;20474;-58
2023/03/06 10:53:52;;;;;;;56.97;18.13;;;4.90;96.30;;;;;;5052600;28;20883;-58
2023/03/06 10:56:30;;;;;;;32.37;14.40;;;4.90;95.80;;;;;;5071136;28;20489;-59
2023/03/06 10:59:07;;;;;;;65.00;25.30;;;4.80;96.20;;;;;;5055082;28;20489;-59
2023/03/06 11:01:34;;;;;;;40.17;19.93;;;4.70;96.20;;;;;;5076153;28;20490;-59
2023/03/06 11:04:21;;;;;;;52.03;19.83;;;5.20;96.80;;;;;;5051716;28;20469;-58
2023/03/06 11:07:05;;;;;;;39.33;17.60;;;4.90;96.50;;;;;;5065832;28;20473;-59
2023/03/06 11:09:33;;;;;;;29.73;13.07;;;5.00;96.70;;;;;;5070328;28;20463;-59
2023/03/06 11:12:22;;;;;;;53.93;21.23;;;5.00;96.40;;;;;;5061649;28;21084;-59
2023/03/06 11:15:19;;;;;;;41.37;17.27;;;5.10;96.20;;;;;;5071847;28;20995;-59
2023/03/06 11:17:57;;;;;;;48.90;18.10;;;5.10;96.40;;;;;;5055090;28;20478;-59
2023/03/06 11:20:26;;;;;;;39.73;17.53;;;5.20;96.30;;;;;;5066850;28;20662;-59
2023/03/06 11:22:56;;;;;;;46.33;20.17;;;5.20;96.30;;;;;;5051449;28;20911;-59
2023/03/06 11:25:27;;;;;;;39.97;14.60;;;5.20;95.90;;;;;;5070826;28;20870;-59
2023/03/06 11:27:59;;;;;;;57.37;21.63;;;5.30;95.90;;;;;;5072462;28;20478;-59
2023/03/06 11:30:33;;;;;;;37.13;16.90;;;5.20;96.00;;;;;;5066506;28;20740;-59
2023/03/06 11:33:03;;;;;;;56.20;21.60;;;5.30;96.20;;;;;;5074927;28;20521;-59
2023/03/06 11:35:34;;;;;;;37.33;16.17;;;5.30;96.20;;;;;;5069672;28;20890;-59
2023/03/06 11:38:05;;;;;;;51.03;21.33;;;5.30;96.00;;;;;;5067111;28;20478;-59
2023/03/06 11:40:42;;;;;;;35.83;16.47;;;5.30;96.00;;;;;;5055940;28;20577;-59
2023/03/06 11:43:18;;;;;;;33.60;14.70;;;5.30;95.90;;;;;;5062781;28;20543;-59
2023/03/06 11:45:48;;;;;;;42.57;18.20;;;5.20;96.00;;;;;;5071200;28;20482;-59
2023/03/06 11:48:23;;;;;;;31.90;14.30;;;5.20;96.20;;;;;;5072377;28;20484;-59
2023/03/06 11:50:51;;;;;;;35.97;14.47;;;5.10;96.30;;;;;;5065892;28;20492;-59
2023/03/06 11:53:22;;;;;;;50.40;20.20;;;5.00;96.50;;;;;;5069130;28;20473;-59
2023/03/06 11:55:57;;;;;;;37.40;15.80;;;4.80;97.00;;;;;;5056165;28;20470;-59
2023/03/06 11:59:02;;;;;;;41.33;17.10;;;4.80;97.40;;;;;;5076623;28;21269;-59
2023/03/06 12:01:34;;;;;;;55.93;19.37;;;4.80;97.10;;;;;;5050757;28;20630;-59
2023/03/06 12:04:22;;;;;;;48.37;19.33;;;4.80;97.50;;;;;;5070260;28;20490;-59
2023/03/06 12:06:54;;;;;;;36.03;16.50;;;4.90;98.20;;;;;;5068629;28;20528;-59
2023/03/06 12:09:32;;;;;;;31.97;13.57;;;5.00;97.90;;;;;;5068692;28;20477;-59
2023/03/06 12:12:19;;;;;;;44.73;16.77;;;5.10;98.00;;;;;;5066496;28;20482;-59
2023/03/06 12:15:01;;;;;;;37.87;16.87;;;5.10;97.90;;;;;;5066535;28;20542;-60
2023/03/06 12:17:36;;;;;;;43.37;19.60;;;5.20;97.60;;;;;;5044543;28;20507;-60
2023/03/06 12:20:19;;;;;;;49.87;18.73;;;5.10;97.60;;;;;;5071354;27;20468;-58
2023/03/06 12:22:51;;;;;;;28.10;13.60;;;5.20;97.60;;;;;;5071742;28;20524;-58
2023/03/06 12:25:32;;;;;;;29.33;14.53;;;5.20;97.90;;;;;;5071190;28;20990;-58
2023/03/06 12:28:26;;;;;;;58.70;20.67;;;5.20;97.60;;;;;;5069641;28;20492;-59
2023/03/06 12:31:12;;;;;;;51.70;19.60;;;5.20;97.50;;;;;;5066907;28;20486;-58
2023/03/06 12:33:48;;;;;;;28.03;12.40;;;5.20;97.50;;;;;;5070361;28;21279;-59
2023/03/06 12:36:32;;;;;;;22.57;10.70;;;5.20;97.30;;;;;;5061588;28;20486;-59
2023/03/06 12:39:04;;;;;;;61.10;22.40;;;5.20;97.30;;;;;;5069634;28;21194;-59
2023/03/06 12:41:41;;;;;;;36.97;17.00;;;5.20;97.10;;;;;;5069080;28;20486;-59
2023/03/06 12:44:37;;;;;;;37.43;15.57;;;5.20;97.30;;;;;;5068175;28;20900;-59
2023/03/06 12:47:09;;;;;;;40.73;16.10;;;5.20;96.90;;;;;;5068588;28;20478;-58
2023/03/06 12:49:41;;;;;;;34.90;16.47;;;5.20;96.90;;;;;;5070879;28;20841;-59